Weather reports worldwide

Advertisment
Getafe Airbase, Spain (8225): temperature & dewpoint: 12.01.2020 12:00:00 - 18.01.2020 12:00:00 (CET)Getafe Airbase, Spain (8225): wind speed: 12.01.2020 12:00:00 - 18.01.2020 12:00:00 (CET)Getafe Airbase, Spain (8225): wind direction: 12.01.2020 12:00:00 - 18.01.2020 12:00:00 (CET)Getafe Airbase, Spain (8225): visibility: 12.01.2020 12:00:00 - 18.01.2020 12:00:00 (CET)
Date & Time tt [°C] td [°C] ff [km/h] ff [kn] dd vv [km]
18.01.2020 12:00:00 8,0 7,0 11 6 S 10
18.01.2020 11:00:00 7,0 7,0 4 2 - 10
18.01.2020 10:00:00 7,0 6,0 4 2 - 8
18.01.2020 09:00:00 6,0 6,0 2 1 - 10
18.01.2020 08:00:00 6,0 6,0 11 6 S 10
18.01.2020 07:00:00 5,0 5,0 2 1 - 5
18.01.2020 06:00:00 5,0 5,0 4 2 - 5
18.01.2020 05:00:00 - - - - - -
18.01.2020 04:00:00 - - - - - -
18.01.2020 03:00:00 - - - - - -
18.01.2020 02:00:00 - - - - - -
18.01.2020 01:00:00 - - - - - -
18.01.2020 00:00:00 - - - - - -
17.01.2020 23:00:00 - - - - - -
17.01.2020 22:00:00 - - - - - -
17.01.2020 21:00:00 7,0 5,0 9 5 W 10
17.01.2020 20:00:00 9,0 6,0 13 7 W 10
17.01.2020 19:00:00 10,0 6,0 13 7 W 10
17.01.2020 18:00:00 11,0 6,0 15 8 WSW 10
17.01.2020 17:00:00 13,0 7,0 15 8 WSW 10
17.01.2020 16:00:00 12,0 6,0 18 10 WSW 10
17.01.2020 15:00:00 12,0 7,0 11 6 W 10
17.01.2020 14:00:00 12,0 7,0 16 9 WSW 10
17.01.2020 13:00:00 11,0 7,0 24 13 WSW 10
17.01.2020 12:00:00 11,0 7,0 24 13 W 10
17.01.2020 11:00:00 10,0 7,0 22 12 WSW 10
17.01.2020 10:00:00 8,0 7,0 16 9 WSW 10
17.01.2020 09:00:00 6,0 5,0 13 7 WSW 10
17.01.2020 08:00:00 5,0 5,0 11 6 WSW 10
17.01.2020 07:00:00 5,0 4,0 11 6 WSW 10
17.01.2020 06:00:00 5,0 4,0 0 0 N 10
17.01.2020 05:00:00 - - - - - -
17.01.2020 04:00:00 - - - - - -
17.01.2020 03:00:00 - - - - - -
17.01.2020 02:00:00 - - - - - -
17.01.2020 01:00:00 - - - - - -
17.01.2020 00:00:00 - - - - - -
16.01.2020 23:00:00 - - - - - -
16.01.2020 22:00:00 - - - - - -
16.01.2020 21:00:00 - - - - - -
16.01.2020 20:00:00 - - - - - -
16.01.2020 19:00:00 11,0 7,0 9 5 S 10
16.01.2020 18:00:00 12,0 7,0 11 6 S 10
16.01.2020 17:00:00 14,0 7,0 13 7 S 10
16.01.2020 16:00:00 14,0 7,0 15 8 SW 10
16.01.2020 15:00:00 14,0 8,0 8 4 W 10
16.01.2020 14:00:00 13,0 8,0 9 5 SW 10
16.01.2020 13:00:00 12,0 8,0 5 3 SSE 10
16.01.2020 12:00:00 10,0 7,0 5 3 ESE 10
16.01.2020 11:00:00 9,0 7,0 5 3 ESE 10
16.01.2020 10:00:00 8,0 6,0 4 2 E 10
16.01.2020 09:00:00 7,0 6,0 0 0 N 10
16.01.2020 08:00:00 8,0 6,0 5 3 NNE 10
16.01.2020 07:00:00 7,0 5,0 4 2 E 10
16.01.2020 06:00:00 7,0 6,0 5 3 ENE 10
16.01.2020 05:00:00 - - - - - -
16.01.2020 04:00:00 - - - - - -
16.01.2020 03:00:00 - - - - - -
16.01.2020 02:00:00 - - - - - -
16.01.2020 01:00:00 - - - - - -
16.01.2020 00:00:00 - - - - - -
15.01.2020 23:00:00 - - - - - -
15.01.2020 22:00:00 - - - - - -
15.01.2020 21:00:00 8,0 6,0 0 0 N 10
15.01.2020 20:00:00 8,0 5,0 0 0 N 10
15.01.2020 19:00:00 8,0 5,0 0 0 N 10
15.01.2020 18:00:00 9,0 5,0 0 0 N 10
15.01.2020 17:00:00 9,0 5,0 0 0 N 10
15.01.2020 16:00:00 8,0 5,0 0 0 N 10
15.01.2020 15:00:00 8,0 5,0 0 0 N 10
15.01.2020 14:00:00 7,0 4,0 4 2 ENE 10
15.01.2020 13:00:00 6,0 4,0 0 0 N 10
15.01.2020 12:00:00 6,0 4,0 4 2 ESE 10
15.01.2020 11:00:00 5,0 4,0 5 3 E 10
15.01.2020 10:00:00 4,0 3,0 4 2 E 10
15.01.2020 09:00:00 2,0 1,0 0 0 N 10
15.01.2020 08:00:00 3,0 2,0 4 2 ESE 10
15.01.2020 07:00:00 2,0 1,0 0 0 N 10
15.01.2020 06:00:00 2,0 1,0 8 4 S 10
15.01.2020 05:00:00 - - - - - -
15.01.2020 04:00:00 - - - - - -
15.01.2020 03:00:00 - - - - - -
15.01.2020 02:00:00 - - - - - -
15.01.2020 01:00:00 - - - - - -
15.01.2020 00:00:00 - - - - - -
14.01.2020 23:00:00 5,0 3,0 0 0 N 10
14.01.2020 22:00:00 5,0 3,0 0 0 N 10
14.01.2020 21:00:00 5,0 3,0 2 1 - 10
14.01.2020 20:00:00 7,0 3,0 0 0 N 10
14.01.2020 19:00:00 6,0 3,0 4 2 S 10
14.01.2020 18:00:00 8,0 3,0 8 4 WSW 10
14.01.2020 17:00:00 10,0 3,0 9 5 SW 10
14.01.2020 16:00:00 9,0 3,0 11 6 SW 10
14.01.2020 15:00:00 9,0 3,0 11 6 SW 10
14.01.2020 14:00:00 8,0 3,0 2 1 - 10
14.01.2020 13:00:00 6,0 1,0 2 1 - 10
14.01.2020 12:00:00 4,0 1,0 4 2 - 10
14.01.2020 11:00:00 1,0 -1,0 0 0 N 7
14.01.2020 10:00:00 0,0 -1,0 0 0 N 5
14.01.2020 09:00:00 -3,0 -3,0 0 0 N 3,5
14.01.2020 08:00:00 -3,0 -3,0 0 0 N 6
14.01.2020 07:00:00 -2,0 -2,0 0 0 N 8
14.01.2020 06:00:00 -3,0 -3,0 0 0 N 10
14.01.2020 05:00:00 - - - - - -
14.01.2020 04:00:00 - - - - - -
14.01.2020 03:00:00 - - - - - -
14.01.2020 02:00:00 - - - - - -
14.01.2020 01:00:00 - - - - - -
14.01.2020 00:00:00 - - - - - -
13.01.2020 23:00:00 - - - - - -
13.01.2020 22:00:00 - - - - - -
13.01.2020 21:00:00 - - - - - -
13.01.2020 20:00:00 - - - - - -
13.01.2020 19:00:00 5,0 1,0 5 3 SSW 10
13.01.2020 18:00:00 7,0 1,0 9 5 SW 10
13.01.2020 17:00:00 9,0 2,0 15 8 SW 10
13.01.2020 16:00:00 9,0 2,0 9 5 SW 10
13.01.2020 15:00:00 8,0 2,0 8 4 S 10
13.01.2020 14:00:00 7,0 1,0 4 2 - 10
13.01.2020 13:00:00 5,0 1,0 2 1 - 10
13.01.2020 12:00:00 3,0 -1,0 2 1 - 10
13.01.2020 11:00:00 1,0 -2,0 0 0 N 10
13.01.2020 10:00:00 -1,0 -2,0 0 0 N 10
13.01.2020 09:00:00 -2,0 -3,0 0 0 N 10
13.01.2020 08:00:00 -2,0 -3,0 2 1 SE 10
13.01.2020 07:00:00 -2,0 -3,0 0 0 N 10
13.01.2020 06:00:00 -2,0 -3,0 0 0 N 10
13.01.2020 05:00:00 - - - - - -
13.01.2020 04:00:00 - - - - - -
13.01.2020 03:00:00 - - - - - -
13.01.2020 02:00:00 - - - - - -
13.01.2020 01:00:00 - - - - - -
13.01.2020 00:00:00 - - - - - -
12.01.2020 23:00:00 - - - - - -
12.01.2020 22:00:00 - - - - - -
12.01.2020 21:00:00 - - - - - -
12.01.2020 20:00:00 - - - - - -
12.01.2020 19:00:00 6,0 0,0 8 4 SW 10
12.01.2020 18:00:00 8,0 1,0 8 4 SW 10
12.01.2020 17:00:00 10,0 0,0 5 3 SSW 10
12.01.2020 16:00:00 11,0 0,0 0 0 N 10
12.01.2020 15:00:00 9,0 0,0 2 1 E 10
12.01.2020 14:00:00 7,0 0,0 0 0 N 10
12.01.2020 13:00:00 6,0 0,0 0 0 N 10
12.01.2020 12:00:00 3,0 -1,0 2 1 - 10

tt = temperature
td = dewpoint
ff = wind speed
dd = wind direction
vv = visibility

Next stations